Time;durP1;ratioP1;P1;durP2;ratioP2;P2;SDS_P1;SDS_P2;PMS_P1;PMS_P2;Temp;Humidity;BMP_temperature;BMP_pressure;BME280_temperature;BME280_humidity;BME280_pressure;Samples;Min_cycle;Max_cycle;Signal;HPM_P1;HPM_P2
2019/12/18 00:00:32;;;;;;;4.8;2.4;;;;;;;8.62;70.38477;934.5087;;;;
2019/12/18 00:03:04;;;;;;;4.9;2.4;;;;;;;8.56;70.73926;934.5339;;;;
2019/12/18 00:05:31;;;;;;;4.4;2.6;;;;;;;8.53;70.71094;934.4138;;;;
2019/12/18 00:07:54;;;;;;;4.8;2.5;;;;;;;8.5;70.73926;934.5483;;;;
2019/12/18 00:10:23;;;;;;;4;2.1;;;;;;;8.53;70.57422;934.5424;;;;
2019/12/18 00:12:50;;;;;;;4.3;2.5;;;;;;;8.69;69.91895;934.553;;;;
2019/12/18 00:15:22;;;;;;;4.3;2.6;;;;;;;8.82;69.37207;934.6333;;;;
2019/12/18 00:17:50;;;;;;;4.7;2.9;;;;;;;8.95;68.9375;934.6901;;;;
2019/12/18 00:20:27;;;;;;;4.4;2.4;;;;;;;9;68.68262;934.6541;;;;
2019/12/18 00:22:47;;;;;;;4.1;2.4;;;;;;;9.12;68.22559;934.7031;;;;
2019/12/18 00:25:14;;;;;;;5.8;2.5;;;;;;;9.08;68.43457;934.6852;;;;
2019/12/18 00:27:48;;;;;;;5;2.7;;;;;;;8.98;68.87402;934.7897;;;;
2019/12/18 00:30:19;;;;;;;4.3;2.7;;;;;;;8.94;68.83203;934.8209;;;;
2019/12/18 00:33:31;;;;;;;4.9;2.4;;;;;;;8.69;69.66895;934.8428;;;;
2019/12/18 00:35:59;;;;;;;4;2.2;;;;;;;8.56;70.27344;934.895;;;;
2019/12/18 00:41:53;;;;;;;2.9;1.5;;;;;;;8.45;71.19727;934.954;;;;
2019/12/18 00:43:16;;;;;;;4.5;2.2;;;;;;;8.55;71.66797;934.9567;;;;
2019/12/18 00:45:48;;;;;;;4.2;1.9;;;;;;;8.63;70.89648;934.9143;;;;
2019/12/18 00:48:21;;;;;;;3.5;1.8;;;;;;;8.77;70.36426;934.973;;;;
2019/12/18 00:50:52;;;;;;;3.7;1.8;;;;;;;8.94;69.49512;934.9712;;;;
2019/12/18 00:53:19;;;;;;;4.7;1.7;;;;;;;9.02;69.12012;934.911;;;;
2019/12/18 00:55:45;;;;;;;3.5;1.7;;;;;;;9.04;68.91602;934.9453;;;;
2019/12/18 00:58:19;;;;;;;2.3;1.5;;;;;;;8.93;69.26465;935.0123;;;;
2019/12/18 01:00:43;;;;;;;3.2;1.6;;;;;;;8.87;69.58398;935.0164;;;;
2019/12/18 01:03:24;;;;;;;2.9;1.4;;;;;;;8.82;69.7002;934.9897;;;;
2019/12/18 01:05:47;;;;;;;2.4;1.5;;;;;;;8.74;70.02832;935.0417;;;;
2019/12/18 01:08:24;;;;;;;3.4;1.6;;;;;;;8.74;69.96191;935.0521;;;;
2019/12/18 01:10:58;;;;;;;3.7;1.7;;;;;;;8.61;70.51953;935.0463;;;;
2019/12/18 01:13:26;;;;;;;3.9;1.7;;;;;;;8.51;71.01465;935.1135;;;;
2019/12/18 01:15:55;;;;;;;2.8;1.7;;;;;;;8.66;70.54004;935.187;;;;
2019/12/18 01:18:23;;;;;;;2.6;1.4;;;;;;;8.52;71.01563;935.396;;;;
2019/12/18 01:20:48;;;;;;;3.2;1.6;;;;;;;8.31;71.82129;935.5014;;;;
2019/12/18 01:23:13;;;;;;;3.7;1.9;;;;;;;8.23;72.2627;935.4551;;;;
2019/12/18 01:25:42;;;;;;;3.4;1.8;;;;;;;8.16;72.63672;935.3873;;;;
2019/12/18 01:28:16;;;;;;;3.5;1.6;;;;;;;8.1;73.0127;935.4808;;;;
2019/12/18 01:30:41;;;;;;;2.9;1.3;;;;;;;8.04;73.51367;935.4904;;;;
2019/12/18 01:33:13;;;;;;;4.3;2.1;;;;;;;8.2;73.16699;935.5235;;;;
2019/12/18 01:35:41;;;;;;;3.3;1.7;;;;;;;8.23;72.87598;935.5606;;;;
2019/12/18 01:38:09;;;;;;;2.8;1.6;;;;;;;8.33;72.47168;935.6714;;;;
2019/12/18 01:41:23;;;;;;;3.2;1.6;;;;;;;8.46;71.99414;935.7531;;;;
2019/12/18 01:43:51;;;;;;;2.4;1.3;;;;;;;8.59;71.5625;935.7992;;;;
2019/12/18 01:46:27;;;;;;;3.8;1.6;;;;;;;8.75;70.82617;935.8436;;;;
2019/12/18 01:48:51;;;;;;;2.9;1.7;;;;;;;8.86;70.61816;935.8619;;;;
2019/12/18 01:51:16;;;;;;;2.7;1.6;;;;;;;8.84;70.2959;935.8251;;;;
2019/12/18 01:53:45;;;;;;;3;1.4;;;;;;;8.54;71.28027;935.9231;;;;
2019/12/18 01:56:14;;;;;;;2.4;1.3;;;;;;;8.44;71.54785;935.9687;;;;
2019/12/18 01:58:48;;;;;;;2.1;1.4;;;;;;;8.43;71.61426;935.936;;;;
2019/12/18 02:01:24;;;;;;;4;1.4;;;;;;;8.35;71.80566;935.926;;;;
2019/12/18 02:03:54;;;;;;;2;1.3;;;;;;;8.19;72.60742;935.9033;;;;
2019/12/18 02:06:21;;;;;;;4.6;1.4;;;;;;;8.13;73.05273;935.9388;;;;
2019/12/18 02:08:39;;;;;;;3.6;1.3;;;;;;;8.19;72.8252;935.9327;;;;
2019/12/18 02:11:06;;;;;;;3.4;1.4;;;;;;;8.29;72.6709;935.8922;;;;
2019/12/18 02:13:30;;;;;;;3.4;1.5;;;;;;;8.2;72.93945;935.8725;;;;
2019/12/18 02:16:00;;;;;;;2;1.1;;;;;;;8.31;72.54883;936.002;;;;
2019/12/18 02:18:27;;;;;;;2.1;1.1;;;;;;;8.45;71.85645;935.9537;;;;
2019/12/18 02:20:53;;;;;;;3.6;1.4;;;;;;;8.53;71.82422;936.0255;;;;
2019/12/18 02:23:31;;;;;;;2.6;1.1;;;;;;;8.4;71.86035;936.0559;;;;
2019/12/18 02:25:58;;;;;;;2.9;1.2;;;;;;;8.4;71.74512;936.1233;;;;
2019/12/18 02:28:25;;;;;;;4.2;1.6;;;;;;;8.31;72.61621;936.1423;;;;
2019/12/18 02:30:55;;;;;;;3;1.3;;;;;;;8.34;72.30371;936.1931;;;;
2019/12/18 02:33:21;;;;;;;5.3;2.2;;;;;;;8.15;72.69238;936.1937;;;;
2019/12/18 02:35:49;;;;;;;5.7;2.1;;;;;;;8.18;72.59473;936.2361;;;;
2019/12/18 02:38:23;;;;;;;3.4;2.1;;;;;;;8.33;71.99609;936.3806;;;;
2019/12/18 02:40:51;;;;;;;3.3;1.9;;;;;;;8.31;71.97168;936.4589;;;;
2019/12/18 02:43:18;;;;;;;4.1;2.2;;;;;;;8.14;73.50781;936.4497;;;;
2019/12/18 02:45:51;;;;;;;5.3;2;;;;;;;8.19;72.99316;936.4972;;;;
2019/12/18 02:48:22;;;;;;;3.8;2;;;;;;;8.23;72.6377;936.4767;;;;
2019/12/18 02:50:47;;;;;;;4.6;1.6;;;;;;;8.28;72.04492;936.5125;;;;
2019/12/18 02:53:21;;;;;;;2.7;1.9;;;;;;;8.16;72.49121;936.4937;;;;
2019/12/18 02:55:54;;;;;;;3.5;1.7;;;;;;;8.11;72.66309;936.5087;;;;
2019/12/18 02:58:31;;;;;;;2.2;1.2;;;;;;;7.83;73.83008;936.6078;;;;
2019/12/18 03:00:56;;;;;;;3.2;1.2;;;;;;;7.91;73.8877;936.6091;;;;
2019/12/18 03:03:21;;;;;;;1.2;0.9;;;;;;;7.96;73.88574;936.5933;;;;
2019/12/18 03:05:45;;;;;;;2.2;1;;;;;;;8.03;73.55762;936.6344;;;;
2019/12/18 03:08:15;;;;;;;2.5;1.1;;;;;;;8.09;73.31738;936.6417;;;;
2019/12/18 03:13:11;;;;;;;1.6;1;;;;;;;8.14;73.46289;936.7192;;;;
2019/12/18 03:15:35;;;;;;;1.5;1;;;;;;;7.9;74.12598;936.7414;;;;
2019/12/18 03:18:04;;;;;;;2.4;0.9;;;;;;;7.79;74.99219;936.7511;;;;
2019/12/18 03:20:32;;;;;;;1.5;0.9;;;;;;;7.93;74.7207;936.7006;;;;
2019/12/18 03:23:01;;;;;;;2.1;1;;;;;;;8.17;73.78516;936.7896;;;;
2019/12/18 03:25:31;;;;;;;1.4;0.8;;;;;;;8.24;73.66113;936.7838;;;;
2019/12/18 03:27:58;;;;;;;1.4;0.9;;;;;;;8.36;73.11523;936.7693;;;;
2019/12/18 03:33:06;;;;;;;2.6;1.5;;;;;;;8.01;74.80371;936.8458;;;;
2019/12/18 03:35:35;;;;;;;2.7;1.4;;;;;;;8.04;74.8291;936.8398;;;;
2019/12/18 03:38:29;;;;;;;2.1;1.2;;;;;;;8.06;74.58398;936.791;;;;
2019/12/18 03:40:57;;;;;;;2.7;1.1;;;;;;;8.05;74.54883;936.8567;;;;
2019/12/18 03:43:22;;;;;;;3.6;1;;;;;;;8.02;74.56641;936.9275;;;;
2019/12/18 03:45:49;;;;;;;3.3;1.1;;;;;;;8.13;74.33594;936.9246;;;;
2019/12/18 03:48:20;;;;;;;3.4;1.1;;;;;;;8.23;73.7168;936.905;;;;
2019/12/18 03:50:47;;;;;;;1.9;1.1;;;;;;;8.28;73.49707;936.8741;;;;
2019/12/18 03:53:14;;;;;;;2.9;1.1;;;;;;;8.2;73.9834;936.9503;;;;
2019/12/18 03:55:39;;;;;;;2.3;1.2;;;;;;;8.07;74.42676;936.8856;;;;
2019/12/18 03:58:15;;;;;;;4.7;1.6;;;;;;;8.02;74.79395;936.7983;;;;
2019/12/18 04:02:43;;;;;;;1.8;1.3;;;;;;;8.05;74.51465;937.0058;;;;
2019/12/18 04:05:14;;;;;;;1.9;1.2;;;;;;;8.08;74.18945;937.0197;;;;
2019/12/18 04:07:48;;;;;;;2.8;1.4;;;;;;;8.15;74.17969;936.9756;;;;
2019/12/18 04:10:15;;;;;;;3;1.4;;;;;;;8.19;74.18555;937.0516;;;;
2019/12/18 04:12:45;;;;;;;2.3;1.5;;;;;;;8.14;74.54102;937.073;;;;
2019/12/18 04:15:13;;;;;;;2.5;1.4;;;;;;;8.17;74.5918;937.0806;;;;
2019/12/18 04:17:38;;;;;;;3.9;1.3;;;;;;;8.22;74.54395;937.0793;;;;
2019/12/18 04:20:06;;;;;;;1.1;0.9;;;;;;;8.28;74.63281;937.0731;;;;
2019/12/18 04:22:34;;;;;;;2.5;0.9;;;;;;;8.37;74.41016;937.1677;;;;
2019/12/18 04:25:04;;;;;;;1.8;1;;;;;;;8.63;73.56836;937.1636;;;;
2019/12/18 04:27:32;;;;;;;1.6;1;;;;;;;8.72;73.29004;937.2022;;;;
2019/12/18 04:29:59;;;;;;;1.8;1.1;;;;;;;8.93;72.60742;937.2697;;;;
2019/12/18 04:32:25;;;;;;;3.6;1.4;;;;;;;8.92;72.25293;937.314;;;;
2019/12/18 04:34:51;;;;;;;1.8;0.9;;;;;;;8.68;73.17969;937.3231;;;;
2019/12/18 04:37:28;;;;;;;1.7;0.9;;;;;;;8.75;73.00879;937.4121;;;;
2019/12/18 04:39:52;;;;;;;3.4;1.1;;;;;;;8.9;72.33008;937.4289;;;;
2019/12/18 04:42:22;;;;;;;2.1;0.9;;;;;;;9.05;71.69531;937.5219;;;;
2019/12/18 04:44:46;;;;;;;2.6;0.8;;;;;;;9.22;71.34863;937.4601;;;;
2019/12/18 04:47:21;;;;;;;2.3;1.1;;;;;;;9.19;71.79785;937.5261;;;;
2019/12/18 04:49:52;;;;;;;1.8;1;;;;;;;9.3;71.26953;937.7042;;;;
2019/12/18 04:52:12;;;;;;;2.4;1.1;;;;;;;9.39;71.01074;937.6919;;;;
2019/12/18 04:55:19;;;;;;;3.7;1.2;;;;;;;9.16;71.46289;937.7291;;;;
2019/12/18 04:57:46;;;;;;;1.6;1;;;;;;;9.23;71.36133;937.7533;;;;
2019/12/18 05:00:13;;;;;;;1.9;1;;;;;;;9.32;70.89648;937.7489;;;;
2019/12/18 05:04:44;;;;;;;2.8;1;;;;;;;9.4;70.36523;937.7349;;;;
2019/12/18 05:05:22;;;;;;;2.1;1;;;;;;;9.38;70.62207;937.7576;;;;
2019/12/18 05:07:39;;;;;;;3.2;1.4;;;;;;;9.07;71.92578;937.7874;;;;
2019/12/18 05:10:21;;;;;;;3.3;1.5;;;;;;;9.09;71.80371;937.8123;;;;
2019/12/18 05:12:58;;;;;;;4.1;2.5;;;;;;;9.07;71.84473;937.8445;;;;
2019/12/18 05:15:29;;;;;;;4.5;2.7;;;;;;;9;72.33496;937.7924;;;;
2019/12/18 05:18:20;;;;;;;5.7;3.3;;;;;;;9.13;71.90234;937.8311;;;;
2019/12/18 05:21:00;;;;;;;6.6;3.4;;;;;;;9.25;72.18359;937.9189;;;;
2019/12/18 05:23:25;;;;;;;6;3.4;;;;;;;9.27;71.9707;937.8953;;;;
2019/12/18 05:25:51;;;;;;;9.3;3.8;;;;;;;9.21;71.91504;937.8688;;;;
2019/12/18 05:28:14;;;;;;;7.8;3.9;;;;;;;9.05;72.27637;937.9174;;;;
2019/12/18 05:30:37;;;;;;;6.4;3.1;;;;;;;9;72.58691;937.9625;;;;
2019/12/18 05:33:03;;;;;;;6.5;3.5;;;;;;;9.04;72.49023;938.0372;;;;
2019/12/18 05:35:31;;;;;;;9.5;6;;;;;;;8.94;72.69043;938.0211;;;;
2019/12/18 05:38:07;;;;;;;7.6;4.4;;;;;;;8.98;72.66211;938.0058;;;;
2019/12/18 05:40:32;;;;;;;11.8;6.5;;;;;;;9.04;73.04688;937.9886;;;;
2019/12/18 05:43:14;;;;;;;14.8;8.2;;;;;;;9.05;72.7998;937.95;;;;
2019/12/18 05:45:39;;;;;;;13.5;7;;;;;;;8.93;73.17578;937.9812;;;;
2019/12/18 05:48:08;;;;;;;10.9;5.8;;;;;;;8.78;73.64063;937.9588;;;;
2019/12/18 05:50:43;;;;;;;11.3;5.9;;;;;;;8.88;73.4873;938.0583;;;;
2019/12/18 05:53:14;;;;;;;9.4;5.1;;;;;;;9.06;72.6875;938.0042;;;;
2019/12/18 05:55:39;;;;;;;9.7;5.8;;;;;;;9.1;72.60352;938.1246;;;;
2019/12/18 05:58:22;;;;;;;12.5;6.4;;;;;;;9.2;72.32324;938.1744;;;;
2019/12/18 06:00:50;;;;;;;11.4;6.1;;;;;;;9.34;71.99414;938.1926;;;;
2019/12/18 06:03:17;;;;;;;14.3;7.4;;;;;;;9.41;72.65527;938.2317;;;;
2019/12/18 06:05:44;;;;;;;15.1;7.5;;;;;;;9.4;71.99316;938.2372;;;;
2019/12/18 06:08:13;;;;;;;13.4;7.4;;;;;;;9.36;71.83789;938.2541;;;;
2019/12/18 06:10:45;;;;;;;14.6;7.1;;;;;;;9.26;71.90137;938.2789;;;;
2019/12/18 06:13:17;;;;;;;11.5;6.2;;;;;;;9.24;71.89648;938.2938;;;;
2019/12/18 06:15:48;;;;;;;12.4;6;;;;;;;9.33;71.66211;938.3466;;;;
2019/12/18 06:18:11;;;;;;;12;5.9;;;;;;;9.4;71.37695;938.3825;;;;
2019/12/18 06:20:38;;;;;;;12.3;6.6;;;;;;;9.42;71.32422;938.3808;;;;
2019/12/18 06:23:15;;;;;;;12.7;7.4;;;;;;;9.5;71.06348;938.4168;;;;
2019/12/18 06:25:42;;;;;;;13.8;7;;;;;;;9.52;71.12305;938.4719;;;;
2019/12/18 06:28:18;;;;;;;14.6;7;;;;;;;9.37;72.58887;938.4751;;;;
2019/12/18 06:30:50;;;;;;;11.5;6.4;;;;;;;9.36;72.27051;938.494;;;;
2019/12/18 06:33:28;;;;;;;11.1;6.7;;;;;;;9.35;71.92773;938.6227;;;;
2019/12/18 06:36:02;;;;;;;11.7;6.6;;;;;;;9.07;73.09961;938.627;;;;
2019/12/18 06:38:52;;;;;;;15.7;6.6;;;;;;;9.01;73.25781;938.6014;;;;
2019/12/18 06:40:51;;;;;;;11.6;6.6;;;;;;;9.1;72.94531;938.521;;;;
2019/12/18 06:43:22;;;;;;;11.5;6.7;;;;;;;9.21;72.73535;938.5078;;;;
2019/12/18 06:46:18;;;;;;;10.4;6.5;;;;;;;9.14;72.87109;938.4899;;;;
2019/12/18 06:48:41;;;;;;;12.3;7.1;;;;;;;9.08;73.03125;938.627;;;;
2019/12/18 06:51:08;;;;;;;15.4;7.3;;;;;;;8.93;73.57422;938.5753;;;;
2019/12/18 06:53:34;;;;;;;10.5;7.9;;;;;;;8.93;73.54004;938.6514;;;;
2019/12/18 06:56:16;;;;;;;13.4;8.2;;;;;;;8.9;73.7627;938.689;;;;
2019/12/18 06:58:31;;;;;;;16;8.8;;;;;;;8.93;73.75586;938.7539;;;;
2019/12/18 07:01:04;;;;;;;13.9;8.7;;;;;;;8.96;73.62598;938.7941;;;;
2019/12/18 07:03:43;;;;;;;13.4;8.5;;;;;;;9.09;73.31641;938.8139;;;;
2019/12/18 07:06:06;;;;;;;14.1;8.9;;;;;;;9.14;73.3252;938.8298;;;;
2019/12/18 07:08:34;;;;;;;13.9;8.3;;;;;;;9.26;72.60645;938.7906;;;;
2019/12/18 07:11:04;;;;;;;16.7;9.3;;;;;;;9.31;73.46973;938.8564;;;;
2019/12/18 07:13:30;;;;;;;17.2;10.2;;;;;;;9.29;72.59961;938.818;;;;
2019/12/18 07:16:01;;;;;;;22.6;14.5;;;;;;;9.31;72.44531;938.8851;;;;
2019/12/18 07:18:34;;;;;;;23.4;14.1;;;;;;;9.23;72.88672;938.9943;;;;
2019/12/18 07:20:58;;;;;;;25.7;16.5;;;;;;;9.14;73.91895;938.9951;;;;
2019/12/18 07:23:25;;;;;;;24.5;15.6;;;;;;;9.2;73.60938;939.0031;;;;
2019/12/18 07:25:53;;;;;;;22.2;14.2;;;;;;;9.05;74.3584;939.0809;;;;
2019/12/18 07:28:17;;;;;;;23.1;13.3;;;;;;;8.95;74.74902;939.1234;;;;
2019/12/18 07:31:02;;;;;;;21.1;12.4;;;;;;;8.96;74.75195;939.1157;;;;
2019/12/18 07:33:09;;;;;;;23.7;13.2;;;;;;;9.17;74.08203;939.1281;;;;
2019/12/18 07:35:33;;;;;;;17.6;11.5;;;;;;;9.39;73.62988;939.1358;;;;
2019/12/18 07:38:38;;;;;;;21.7;12.2;;;;;;;9.55;72.68848;939.1225;;;;
2019/12/18 07:40:50;;;;;;;19.1;11.2;;;;;;;9.64;72.2373;939.1058;;;;
2019/12/18 07:43:23;;;;;;;21.1;11.7;;;;;;;9.77;72.31543;939.0536;;;;
2019/12/18 07:45:59;;;;;;;19.2;10.7;;;;;;;9.81;71.44531;939.0636;;;;
2019/12/18 07:48:27;;;;;;;21.3;12.9;;;;;;;9.84;71.13281;939.0446;;;;
2019/12/18 07:50:52;;;;;;;26.5;15.6;;;;;;;9.81;71.27441;938.9567;;;;
2019/12/18 07:53:20;;;;;;;25.3;13.2;;;;;;;9.69;71.57422;938.9356;;;;
2019/12/18 07:55:47;;;;;;;19.6;10.7;;;;;;;9.42;72.71191;938.9998;;;;
2019/12/18 07:58:24;;;;;;;15;8.5;;;;;;;9.36;73.22656;939.0392;;;;
2019/12/18 08:01:03;;;;;;;13.8;7.8;;;;;;;9.41;73.37109;938.9906;;;;
2019/12/18 08:03:37;;;;;;;14.7;7.9;;;;;;;9.57;72.93164;938.991;;;;
2019/12/18 08:06:17;;;;;;;12.4;7.5;;;;;;;9.57;72.80664;939.134;;;;
2019/12/18 08:08:43;;;;;;;15.6;8;;;;;;;9.32;73.62891;939.2031;;;;
2019/12/18 08:11:14;;;;;;;10.6;5.8;;;;;;;9.03;74.58301;939.2291;;;;
2019/12/18 08:13:45;;;;;;;10.1;5.8;;;;;;;8.9;75.25293;939.2712;;;;
2019/12/18 08:16:26;;;;;;;9.6;4.6;;;;;;;8.98;75.25586;939.2264;;;;
2019/12/18 08:18:56;;;;;;;7.6;4.3;;;;;;;9.15;74.61621;939.2573;;;;
2019/12/18 08:21:21;;;;;;;5.4;2.8;;;;;;;9.46;73.12988;939.2469;;;;
2019/12/18 08:23:48;;;;;;;8;3.4;;;;;;;9.91;71.94141;939.2458;;;;
2019/12/18 08:26:23;;;;;;;8.2;4.8;;;;;;;10.41;71.46484;939.3133;;;;
2019/12/18 08:28:47;;;;;;;7.8;4.2;;;;;;;11.91;66.86719;939.1687;;;;
2019/12/18 08:31:16;;;;;;;6.4;3.6;;;;;;;13.89;59.24512;939.1564;;;;
2019/12/18 08:33:51;;;;;;;8.1;4.4;;;;;;;15.58;53.50195;939.2739;;;;
2019/12/18 08:36:26;;;;;;;8.8;4.4;;;;;;;16.6;50.31641;939.3079;;;;
2019/12/18 08:39:05;;;;;;;9.3;4.4;;;;;;;17.17;48.20313;939.2807;;;;
2019/12/18 08:41:28;;;;;;;9.3;3.6;;;;;;;16.18;49.4707;939.2903;;;;
2019/12/18 08:44:17;;;;;;;5.8;2.9;;;;;;;15.11;52.66113;939.3073;;;;
2019/12/18 08:46:45;;;;;;;6.6;2.7;;;;;;;13.86;55.74316;939.3469;;;;
2019/12/18 08:49:18;;;;;;;9;3.4;;;;;;;13.64;56.92285;939.4389;;;;
2019/12/18 08:51:50;;;;;;;10.5;3.2;;;;;;;13.31;57.47656;939.4886;;;;
2019/12/18 08:54:16;;;;;;;13.6;3.1;;;;;;;13.07;58.49023;939.4926;;;;
2019/12/18 08:57:13;;;;;;;10.4;3.9;;;;;;;12.81;59.90137;939.6289;;;;
2019/12/18 08:59:16;;;;;;;10;4;;;;;;;12.58;60.41016;939.5895;;;;
2019/12/18 09:01:40;;;;;;;5.1;2.6;;;;;;;12.32;61.0498;939.5433;;;;
2019/12/18 09:04:06;;;;;;;6.9;2.9;;;;;;;11.94;62.34668;939.6812;;;;
2019/12/18 09:06:52;;;;;;;6.6;2.9;;;;;;;11.9;62.48047;939.6682;;;;
2019/12/18 09:09:23;;;;;;;7.1;3.2;;;;;;;12.07;62.65234;939.7253;;;;
2019/12/18 09:11:56;;;;;;;5.6;2.8;;;;;;;12.3;61.51758;939.7564;;;;
2019/12/18 09:14:26;;;;;;;5.7;2.8;;;;;;;12.54;61.44727;939.7419;;;;
2019/12/18 09:17:01;;;;;;;4.2;1.7;;;;;;;12.74;59.64063;939.7637;;;;
2019/12/18 09:19:28;;;;;;;4.1;1.7;;;;;;;12.86;58.95605;939.7852;;;;
2019/12/18 09:21:52;;;;;;;3.5;1.6;;;;;;;13.04;59.12988;939.6836;;;;
2019/12/18 09:24:21;;;;;;;5.9;1.8;;;;;;;13.18;59.27539;939.7281;;;;
2019/12/18 09:26:59;;;;;;;4.4;2;;;;;;;13.33;58.59473;939.6711;;;;
2019/12/18 09:29:26;;;;;;;6.7;1.9;;;;;;;13.43;57.11328;939.7106;;;;
2019/12/18 09:32:12;;;;;;;4.7;1.7;;;;;;;13.47;56.62402;939.7371;;;;
2019/12/18 09:34:41;;;;;;;2.9;1.5;;;;;;;13.49;57.03027;939.7755;;;;
2019/12/18 09:37:32;;;;;;;4.8;1.4;;;;;;;13.54;56.81738;939.7907;;;;
2019/12/18 09:40:20;;;;;;;2.9;1.2;;;;;;;13.59;57.17969;939.8379;;;;
2019/12/18 09:42:52;;;;;;;6.4;1.7;;;;;;;13.63;56.4375;939.827;;;;
2019/12/18 09:45:21;;;;;;;3.1;1.4;;;;;;;13.63;57.16309;939.7855;;;;
2019/12/18 09:47:46;;;;;;;2.9;1.4;;;;;;;13.6;57.22852;939.8131;;;;
2019/12/18 09:50:19;;;;;;;4.4;1.7;;;;;;;13.59;58.01953;939.8883;;;;
2019/12/18 09:52:43;;;;;;;3.8;1.4;;;;;;;13.63;57.64453;939.9199;;;;
2019/12/18 09:55:26;;;;;;;4.4;1.9;;;;;;;13.64;58.69336;939.9166;;;;
2019/12/18 09:58:33;;;;;;;7.5;2.4;;;;;;;13.49;58.66113;939.8306;;;;
2019/12/18 10:00:31;;;;;;;4.5;2;;;;;;;13.39;59.40625;939.8111;;;;
2019/12/18 10:03:01;;;;;;;4.2;1.7;;;;;;;13.45;58.61035;939.7883;;;;
2019/12/18 10:05:29;;;;;;;7.6;1.7;;;;;;;13.55;57.36035;939.7915;;;;
2019/12/18 10:08:05;;;;;;;7.3;1.6;;;;;;;13.68;56.2373;939.7662;;;;
2019/12/18 10:10:22;;;;;;;20.5;3.1;;;;;;;13.78;56.28613;939.7037;;;;
2019/12/18 10:12:51;;;;;;;5.8;1.4;;;;;;;13.88;55.9873;939.7008;;;;
2019/12/18 10:15:18;;;;;;;4.7;1.3;;;;;;;13.94;56.72168;939.6254;;;;
2019/12/18 10:17:43;;;;;;;9.7;1.5;;;;;;;14.06;55.94141;939.74;;;;
2019/12/18 10:20:19;;;;;;;5.5;1.5;;;;;;;14.17;56.32422;939.6998;;;;
2019/12/18 10:22:49;;;;;;;4.7;1.4;;;;;;;14.21;56.6748;939.6188;;;;
2019/12/18 10:25:22;;;;;;;3.6;1.1;;;;;;;14.28;56.22363;939.7439;;;;
2019/12/18 10:27:49;;;;;;;4;1.2;;;;;;;14.38;55.64844;939.6699;;;;
2019/12/18 10:30:27;;;;;;;9.1;1.8;;;;;;;14.34;57.47461;939.6908;;;;
2019/12/18 10:32:53;;;;;;;6.8;1.9;;;;;;;14.36;58.37598;939.7556;;;;
2019/12/18 10:35:18;;;;;;;8.1;2.1;;;;;;;14.38;59.24316;939.6707;;;;
2019/12/18 10:37:56;;;;;;;8.3;2.2;;;;;;;14.37;58.08984;939.698;;;;
2019/12/18 10:40:32;;;;;;;7.4;2.1;;;;;;;14.45;56.9248;939.7095;;;;
2019/12/18 10:43:00;;;;;;;5.6;1.9;;;;;;;14.55;55.24512;939.7236;;;;
2019/12/18 10:45:34;;;;;;;5.7;1.5;;;;;;;14.62;54.52734;939.6844;;;;
2019/12/18 10:48:04;;;;;;;4.3;1.7;;;;;;;14.7;54.80273;939.6672;;;;
2019/12/18 10:50:34;;;;;;;5;2.1;;;;;;;14.8;54.84863;939.593;;;;
2019/12/18 10:53:08;;;;;;;8.1;2.1;;;;;;;14.92;53.70996;939.6809;;;;
2019/12/18 10:55:33;;;;;;;8.7;2;;;;;;;15.02;54.20801;939.6615;;;;
2019/12/18 10:58:04;;;;;;;7.9;2.2;;;;;;;15.14;51.90332;939.6127;;;;
2019/12/18 11:00:31;;;;;;;8.4;1.6;;;;;;;15.17;49.59863;939.5956;;;;
2019/12/18 11:03:00;;;;;;;4;1;;;;;;;15.29;47.24609;939.5944;;;;
2019/12/18 11:05:24;;;;;;;4.1;1.1;;;;;;;15.45;46.9043;939.5302;;;;
2019/12/18 11:07:53;;;;;;;6.9;1.3;;;;;;;15.49;47.75391;939.4584;;;;
2019/12/18 11:10:23;;;;;;;3.8;1.1;;;;;;;15.55;46.99707;939.4877;;;;
2019/12/18 11:13:18;;;;;;;3.3;1.3;;;;;;;15.34;50.8877;939.481;;;;
2019/12/18 11:15:45;;;;;;;4.4;1.7;;;;;;;15.51;49.97266;939.5513;;;;
2019/12/18 11:18:13;;;;;;;18;2.7;;;;;;;15.58;50.5;939.5669;;;;
2019/12/18 11:20:39;;;;;;;7.9;1.8;;;;;;;15.76;48.94824;939.4835;;;;
2019/12/18 11:23:04;;;;;;;6.4;1.6;;;;;;;16.04;48.02051;939.4155;;;;
2019/12/18 11:25:31;;;;;;;5.4;1.6;;;;;;;16.19;47.2627;939.4944;;;;
2019/12/18 11:28:01;;;;;;;5.9;1.7;;;;;;;16.34;46.44531;939.5622;;;;
2019/12/18 11:30:29;;;;;;;6.5;1.3;;;;;;;16.47;46.16895;939.4807;;;;
2019/12/18 11:32:59;;;;;;;3.7;1.1;;;;;;;16.48;45.47656;939.4428;;;;
2019/12/18 11:35:23;;;;;;;3.8;1.2;;;;;;;16.64;45.66699;939.3769;;;;
2019/12/18 11:37:51;;;;;;;7.3;1.2;;;;;;;16.81;44.4209;939.3558;;;;
2019/12/18 11:40:28;;;;;;;5.7;1.3;;;;;;;16.8;45.33594;939.3856;;;;
2019/12/18 11:42:51;;;;;;;8.5;1.1;;;;;;;16.95;44.4707;939.3245;;;;
2019/12/18 11:45:18;;;;;;;3.4;1.2;;;;;;;17;45.10156;939.1942;;;;
2019/12/18 11:47:51;;;;;;;3.4;1;;;;;;;17.08;44.55371;939.3038;;;;
2019/12/18 11:50:18;;;;;;;2.1;0.8;;;;;;;17.17;44.48145;939.3515;;;;
2019/12/18 11:52:50;;;;;;;3.9;1;;;;;;;17.27;45.66309;939.3053;;;;
2019/12/18 11:55:16;;;;;;;3;0.8;;;;;;;17.26;43.93359;939.332;;;;
2019/12/18 11:57:46;;;;;;;6.6;1;;;;;;;17.39;43.4707;939.2714;;;;
2019/12/18 12:02:42;;;;;;;4.7;1.1;;;;;;;17.51;43.72754;939.3423;;;;
2019/12/18 12:05:07;;;;;;;4.1;1.1;;;;;;;17.42;43.49707;939.2784;;;;
2019/12/18 12:07:29;;;;;;;4.8;1;;;;;;;17.5;43.18066;939.3198;;;;
2019/12/18 12:10:03;;;;;;;2.6;0.9;;;;;;;17.65;42.80078;939.3154;;;;
2019/12/18 12:12:36;;;;;;;3.2;0.9;;;;;;;17.54;43.19629;939.2935;;;;
2019/12/18 12:15:09;;;;;;;4.7;1.1;;;;;;;17.61;43.22656;939.3019;;;;
2019/12/18 12:17:39;;;;;;;7;1.1;;;;;;;17.63;42.79883;939.3052;;;;
2019/12/18 12:20:11;;;;;;;8.3;1.2;;;;;;;17.34;42.72559;939.2986;;;;
2019/12/18 12:22:37;;;;;;;8.6;1.3;;;;;;;17.37;42.75;939.3279;;;;
2019/12/18 12:25:09;;;;;;;9.4;1.2;;;;;;;17.39;42.3457;939.3075;;;;
2019/12/18 12:28:17;;;;;;;5.3;1.2;;;;;;;17.32;42.11914;939.3705;;;;
2019/12/18 12:30:02;;;;;;;9.9;1.4;;;;;;;17.27;42.43848;939.2692;;;;
2019/12/18 12:32:27;;;;;;;7.1;1.4;;;;;;;17.23;42.2959;939.2592;;;;
2019/12/18 12:35:16;;;;;;;7;1.7;;;;;;;17.22;42.66699;939.2625;;;;
2019/12/18 12:37:31;;;;;;;8.7;1.9;;;;;;;17.16;43.21582;939.3259;;;;
2019/12/18 12:40:21;;;;;;;9.5;1.7;;;;;;;16.94;43.9834;939.2941;;;;
2019/12/18 12:42:48;;;;;;;9.5;1.6;;;;;;;16.83;44.84082;939.2723;;;;
2019/12/18 12:45:13;;;;;;;7.5;1.6;;;;;;;16.86;44.60059;939.2477;;;;
2019/12/18 12:47:38;;;;;;;8.7;1.5;;;;;;;16.92;44.52539;939.2855;;;;
2019/12/18 12:50:10;;;;;;;15.9;2.1;;;;;;;17.02;44.32715;939.2458;;;;
2019/12/18 12:52:42;;;;;;;8.9;2.3;;;;;;;17.06;44.27246;939.1785;;;;
2019/12/18 12:55:17;;;;;;;10;2;;;;;;;16.9;44.95215;939.2375;;;;
2019/12/18 12:58:28;;;;;;;10.2;2;;;;;;;16.85;44.9707;939.2455;;;;
2019/12/18 13:00:04;;;;;;;11.1;1.7;;;;;;;16.93;45.20996;939.1976;;;;
2019/12/18 13:02:32;;;;;;;8.4;1.6;;;;;;;17;44.70703;939.1998;;;;
2019/12/18 13:04:56;;;;;;;13.5;2;;;;;;;16.91;44.79102;939.2567;;;;
2019/12/18 13:07:24;;;;;;;9.5;1.9;;;;;;;17;45.1709;939.1758;;;;
2019/12/18 13:09:51;;;;;;;8.7;1.9;;;;;;;17;45.35645;939.2193;;;;
2019/12/18 13:12:20;;;;;;;4.8;1.3;;;;;;;16.95;45.18945;939.2321;;;;
2019/12/18 13:14:48;;;;;;;12.2;1.8;;;;;;;16.93;45.97461;939.2628;;;;
2019/12/18 13:17:20;;;;;;;7.9;1.8;;;;;;;17.03;46.04297;939.2481;;;;
2019/12/18 13:19:54;;;;;;;6.4;1.7;;;;;;;17.12;46.08789;939.18;;;;
2019/12/18 13:22:22;;;;;;;9.8;1.8;;;;;;;17.28;46.2666;939.2045;;;;
2019/12/18 13:24:45;;;;;;;10.5;1.8;;;;;;;17.39;45.60547;939.2447;;;;
2019/12/18 13:27:09;;;;;;;6.9;1.8;;;;;;;17.61;44.95508;939.3133;;;;
2019/12/18 13:29:35;;;;;;;7.4;1.6;;;;;;;17.97;44.40039;939.3219;;;;
2019/12/18 13:32:05;;;;;;;5.9;1.8;;;;;;;18.74;42.27832;939.3823;;;;
2019/12/18 13:34:29;;;;;;;9.7;2;;;;;;;18.64;42.33887;939.3553;;;;
2019/12/18 13:37:00;;;;;;;11.8;2.1;;;;;;;19.32;40.9248;939.4146;;;;
2019/12/18 13:39:30;;;;;;;15.9;2.2;;;;;;;19.17;40.70117;939.4377;;;;
2019/12/18 13:41:58;;;;;;;15.5;2.5;;;;;;;18.7;41.89063;939.4429;;;;
2019/12/18 13:44:32;;;;;;;14.5;2.3;;;;;;;18.85;41.61426;939.399;;;;
2019/12/18 13:47:04;;;;;;;12.2;2.5;;;;;;;19.11;41.19727;939.4203;;;;
2019/12/18 13:49:31;;;;;;;12.6;2.1;;;;;;;18.97;41.2998;939.4077;;;;
2019/12/18 13:51:57;;;;;;;10.9;2.2;;;;;;;18.79;41.8291;939.4507;;;;
2019/12/18 13:54:25;;;;;;;16.5;2.5;;;;;;;18.46;42.44922;939.4686;;;;
2019/12/18 13:56:57;;;;;;;14.6;2.5;;;;;;;18.2;42.93555;939.4794;;;;
2019/12/18 13:59:31;;;;;;;14.7;2.5;;;;;;;17.7;44.31445;939.521;;;;
2019/12/18 14:01:55;;;;;;;13.5;2.4;;;;;;;17.54;44.62305;939.4835;;;;
2019/12/18 14:04:22;;;;;;;12.9;2.5;;;;;;;17.41;45.17871;939.3716;;;;
2019/12/18 14:06:55;;;;;;;16.3;2.8;;;;;;;17.21;45.67871;939.4684;;;;
2019/12/18 14:09:22;;;;;;;23.7;3.5;;;;;;;16.87;46.80273;939.3828;;;;
2019/12/18 14:11:56;;;;;;;27.3;3.8;;;;;;;16.69;47.4668;939.4481;;;;
2019/12/18 14:14:28;;;;;;;19.6;3.4;;;;;;;16.49;48.03613;939.5142;;;;
2019/12/18 14:17:01;;;;;;;16.3;3.1;;;;;;;16.17;49.3418;939.4817;;;;
2019/12/18 14:19:32;;;;;;;26.1;3.9;;;;;;;16.06;49.78027;939.5005;;;;
2019/12/18 14:22:03;;;;;;;41;5.5;;;;;;;15.81;50.6416;939.5825;;;;
2019/12/18 14:24:32;;;;;;;32.2;4.7;;;;;;;15.7;51.02344;939.5433;;;;
2019/12/18 14:27:02;;;;;;;36.2;5.1;;;;;;;15.55;51.70996;939.5928;;;;
2019/12/18 14:29:29;;;;;;;39.7;5.1;;;;;;;15.48;51.71191;939.587;;;;
2019/12/18 14:31:57;;;;;;;24.1;4;;;;;;;15.3;51.8418;939.551;;;;
2019/12/18 14:34:57;;;;;;;30;3.8;;;;;;;14.95;52.6875;939.5934;;;;
2019/12/18 14:37:26;;;;;;;53.5;5.7;;;;;;;14.63;53.76758;939.6588;;;;
2019/12/18 14:39:52;;;;;;;42.2;4.6;;;;;;;14.52;54.46875;939.6805;;;;
2019/12/18 14:42:21;;;;;;;16.3;2.9;;;;;;;14.29;54.92285;939.6766;;;;
2019/12/18 14:44:51;;;;;;;35.6;3.9;;;;;;;14.34;55.4248;939.6948;;;;
2019/12/18 14:47:16;;;;;;;29.5;4.2;;;;;;;14.28;55.69336;939.7439;;;;
2019/12/18 14:49:43;;;;;;;30.3;4.2;;;;;;;14.24;56.21777;939.7849;;;;
2019/12/18 14:52:07;;;;;;;25.2;4.3;;;;;;;14.27;56.56641;939.7855;;;;
2019/12/18 14:54:31;;;;;;;28;5.6;;;;;;;14.23;56.86133;939.7864;;;;
2019/12/18 14:57:21;;;;;;;20.1;4.9;;;;;;;14.11;56.78711;939.9033;;;;